Time;durP1;ratioP1;P1;durP2;ratioP2;P2;SDS_P1;SDS_P2;PMS_P1;PMS_P2;Temp;Humidity;BMP_temperature;BMP_pressure;BME280_temperature;BME280_humidity;BME280_pressure;Samples;Min_cycle;Max_cycle;Signal;HPM_P1;HPM_P2
2023/06/30 06:02:50;;;;;;;2.00;1.38;;;;;;;;;;7402659;19;20113;-90
2023/06/30 06:05:47;;;;;;;1.35;1.25;;;;;;;;;;7394678;19;20188;-91
2023/06/30 06:08:25;;;;;;;0.80;0.80;;;;;;;;;;7399639;19;20145;-90
2023/06/30 06:14:08;;;;;;;1.05;1.05;;;;;;;;;;7400807;19;20152;-90
2023/06/30 06:16:45;;;;;;;4.70;0.85;;;;;;;;;;7396620;19;20661;-90
2023/06/30 06:19:24;;;;;;;1.55;1.45;;;;;;;;;;7399297;19;20529;-90
2023/06/30 06:21:51;;;;;;;1.40;1.33;;;;;;;;;;7396139;19;20146;-90
2023/06/30 06:25:03;;;;;;;0.82;0.80;;;;;;;;;;7393164;19;20597;-88
2023/06/30 06:27:35;;;;;;;0.98;0.93;;;;;;;;;;7390679;19;20154;-90
2023/06/30 06:30:05;;;;;;;1.52;1.42;;;;;;;;;;7394346;19;20164;-88
2023/06/30 06:32:31;;;;;;;1.02;1.02;;;;;;;;;;7395171;19;20161;-90
2023/06/30 06:34:58;;;;;;;1.50;1.40;;;;;;;;;;7393214;19;20153;-90
2023/06/30 06:37:25;;;;;;;3.20;1.75;;;;;;;;;;7397158;19;20149;-89
2023/06/30 06:39:51;;;;;;;1.48;1.38;;;;;;;;;;7399063;19;20140;-88
2023/06/30 06:42:18;;;;;;;1.35;1.25;;;;;;;;;;7395968;19;20137;-89
2023/06/30 06:44:48;;;;;;;1.13;1.13;;;;;;;;;;7393432;19;20164;-89
2023/06/30 06:51:03;;;;;;;1.13;0.95;;;;;;;;;;7396963;19;20120;-88
2023/06/30 06:53:34;;;;;;;1.00;1.00;;;;;;;;;;7395574;19;20171;-85
2023/06/30 06:56:02;;;;;;;0.90;0.90;;;;;;;;;;7392347;19;20153;-87
2023/06/30 06:58:30;;;;;;;4.57;1.50;;;;;;;;;;7393783;19;20137;-86
2023/06/30 07:00:57;;;;;;;2.17;1.75;;;;;;;;;;7396626;19;20144;-85
2023/06/30 07:03:24;;;;;;;1.73;1.63;;;;;;;;;;7395870;19;20160;-86
2023/06/30 07:05:51;;;;;;;1.75;1.58;;;;;;;;;;7395397;19;20177;-86
2023/06/30 07:08:19;;;;;;;1.00;1.00;;;;;;;;;;7395786;19;20538;-86
2023/06/30 07:10:46;;;;;;;2.22;1.40;;;;;;;;;;7396601;19;20144;-87
2023/06/30 07:13:16;;;;;;;1.13;1.08;;;;;;;;;;7394301;19;20654;-87
2023/06/30 07:15:44;;;;;;;1.83;1.73;;;;;;;;;;7393235;19;20141;-87
2023/06/30 07:18:12;;;;;;;1.45;1.25;;;;;;;;;;7397307;19;20128;-88
2023/06/30 07:20:38;;;;;;;1.77;1.30;;;;;;;;;;7395530;19;20773;-89
2023/06/30 07:23:05;;;;;;;0.73;0.73;;;;;;;;;;7394468;19;20255;-88
2023/06/30 07:25:32;;;;;;;0.63;0.63;;;;;;;;;;7395928;19;20147;-87
2023/06/30 07:27:58;;;;;;;1.50;1.40;;;;;;;;;;7393795;19;20141;-87
2023/06/30 07:30:26;;;;;;;2.05;1.30;;;;;;;;;;7394067;19;20137;-88
2023/06/30 07:32:56;;;;;;;2.78;2.38;;;;;;;;;;7395265;19;20145;-88
2023/06/30 07:35:23;;;;;;;1.85;1.75;;;;;;;;;;7394829;19;20173;-88
2023/06/30 07:37:50;;;;;;;1.92;1.48;;;;;;;;;;7394561;19;20611;-89
2023/06/30 07:40:17;;;;;;;1.08;1.08;;;;;;;;;;7399453;19;20666;-89
2023/06/30 07:42:49;;;;;;;1.00;0.98;;;;;;;;;;7395977;19;20148;-89
2023/06/30 07:45:16;;;;;;;1.48;1.38;;;;;;;;;;7392446;19;20194;-87
2023/06/30 07:47:45;;;;;;;1.40;1.35;;;;;;;;;;7394512;19;20125;-86
2023/06/30 07:50:14;;;;;;;1.33;1.23;;;;;;;;;;7396268;19;20209;-89
2023/06/30 07:52:45;;;;;;;2.20;1.73;;;;;;;;;;7396015;19;20139;-88
2023/06/30 07:55:12;;;;;;;2.00;1.90;;;;;;;;;;7396306;19;20153;-89
2023/06/30 07:57:39;;;;;;;1.48;1.38;;;;;;;;;;7395537;19;20152;-88
2023/06/30 08:00:06;;;;;;;1.17;1.15;;;;;;;;;;7396303;19;20196;-88
2023/06/30 08:02:33;;;;;;;1.80;1.70;;;;;;;;;;7395070;19;20154;-87
2023/06/30 08:05:00;;;;;;;2.10;2.00;;;;;;;;;;7394600;19;20165;-87
2023/06/30 08:07:27;;;;;;;2.30;2.10;;;;;;;;;;7396832;19;20157;-87
2023/06/30 08:10:14;;;;;;;2.65;1.88;;;;;;;;;;7392028;19;20608;-88
2023/06/30 08:12:40;;;;;;;1.70;1.60;;;;;;;;;;7393569;19;20169;-87
2023/06/30 08:15:07;;;;;;;3.17;2.47;;;;;;;;;;7395862;19;20151;-89
2023/06/30 08:17:34;;;;;;;3.03;2.55;;;;;;;;;;7397167;19;20136;-88
2023/06/30 08:20:20;;;;;;;3.03;1.63;;;;;;;;;;7397346;19;20497;-89
2023/06/30 08:22:48;;;;;;;2.30;2.08;;;;;;;;;;7398488;19;20141;-88
2023/06/30 08:25:15;;;;;;;2.90;2.30;;;;;;;;;;7395914;19;20168;-89
2023/06/30 08:27:42;;;;;;;1.58;1.50;;;;;;;;;;7397921;19;20136;-89
2023/06/30 08:30:09;;;;;;;2.75;2.55;;;;;;;;;;7397999;19;20143;-88
2023/06/30 08:32:37;;;;;;;1.67;1.58;;;;;;;;;;7395261;19;20903;-90
2023/06/30 08:35:04;;;;;;;1.23;1.15;;;;;;;;;;7392634;19;20196;-89
2023/06/30 08:37:31;;;;;;;2.95;1.58;;;;;;;;;;7395234;19;20136;-89
2023/06/30 08:40:44;;;;;;;2.35;2.20;;;;;;;;;;7394731;19;20212;-89
2023/06/30 08:43:15;;;;;;;1.38;1.30;;;;;;;;;;7392227;19;20153;-89
2023/06/30 08:45:47;;;;;;;2.65;2.45;;;;;;;;;;7393919;19;20387;-90
2023/06/30 08:48:15;;;;;;;2.25;2.05;;;;;;;;;;7393910;19;20140;-89
2023/06/30 08:50:43;;;;;;;1.73;1.70;;;;;;;;;;7394539;19;20141;-89
2023/06/30 08:53:09;;;;;;;2.35;1.58;;;;;;;;;;7393720;19;20652;-89
2023/06/30 08:55:37;;;;;;;3.03;1.83;;;;;;;;;;7393497;19;20175;-89
2023/06/30 08:58:04;;;;;;;2.50;2.22;;;;;;;;;;7394210;19;20132;-90
2023/06/30 09:00:46;;;;;;;1.90;1.80;;;;;;;;;;7397963;19;20594;-90
2023/06/30 09:03:13;;;;;;;1.92;1.83;;;;;;;;;;7397249;19;20181;-88
2023/06/30 09:05:40;;;;;;;5.30;1.67;;;;;;;;;;7393024;19;20157;-89
2023/06/30 09:08:12;;;;;;;1.92;1.77;;;;;;;;;;7393279;19;20125;-89
2023/06/30 09:10:41;;;;;;;3.70;2.05;;;;;;;;;;7392217;19;20129;-89
2023/06/30 09:13:08;;;;;;;1.60;1.50;;;;;;;;;;7393781;19;20618;-89
2023/06/30 09:15:35;;;;;;;2.63;2.42;;;;;;;;;;7392974;19;20171;-89
2023/06/30 09:18:02;;;;;;;2.22;2.08;;;;;;;;;;7393034;19;20137;-89
2023/06/30 09:20:29;;;;;;;2.17;2.08;;;;;;;;;;7392267;19;20145;-88
2023/06/30 09:22:56;;;;;;;1.63;1.52;;;;;;;;;;7394798;19;20606;-89
2023/06/30 09:25:26;;;;;;;2.67;2.13;;;;;;;;;;7394344;19;20630;-89
2023/06/30 09:27:54;;;;;;;1.75;1.65;;;;;;;;;;7394984;19;20197;-88
2023/06/30 09:30:34;;;;;;;1.45;1.40;;;;;;;;;;7394936;19;20460;-89
2023/06/30 09:33:01;;;;;;;3.00;2.70;;;;;;;;;;7394681;19;20133;-89
2023/06/30 09:35:38;;;;;;;2.17;2.08;;;;;;;;;;7394407;19;20478;-89
2023/06/30 09:38:12;;;;;;;4.45;2.05;;;;;;;;;;7394886;19;20141;-89
2023/06/30 09:40:49;;;;;;;0.95;0.95;;;;;;;;;;7393317;19;20150;-89
2023/06/30 09:43:18;;;;;;;3.78;2.90;;;;;;;;;;7394408;19;20231;-88
2023/06/30 09:45:46;;;;;;;2.70;2.22;;;;;;;;;;7392980;19;20137;-88
2023/06/30 09:48:14;;;;;;;2.25;2.13;;;;;;;;;;7391784;19;20139;-88
2023/06/30 09:50:44;;;;;;;1.30;1.25;;;;;;;;;;7389555;19;20145;-88
2023/06/30 09:53:11;;;;;;;1.92;1.80;;;;;;;;;;7390390;19;20141;-88
2023/06/30 09:55:50;;;;;;;2.58;2.17;;;;;;;;;;7388434;19;20168;-88
2023/06/30 09:58:18;;;;;;;1.63;1.52;;;;;;;;;;7390080;19;20149;-88
2023/06/30 10:00:45;;;;;;;2.25;1.77;;;;;;;;;;7390990;19;20165;-88
2023/06/30 10:03:16;;;;;;;4.32;2.42;;;;;;;;;;7394270;19;20173;-89
2023/06/30 10:05:45;;;;;;;1.70;1.60;;;;;;;;;;7394666;19;20638;-89
2023/06/30 10:08:12;;;;;;;1.48;1.48;;;;;;;;;;7393389;19;20141;-89
2023/06/30 10:10:41;;;;;;;3.47;2.13;;;;;;;;;;7392469;19;20130;-89
2023/06/30 10:13:08;;;;;;;2.38;2.25;;;;;;;;;;7395493;19;20141;-89
2023/06/30 10:15:35;;;;;;;1.67;1.58;;;;;;;;;;7391927;19;20165;-89
2023/06/30 10:18:02;;;;;;;3.50;3.20;;;;;;;;;;7392826;19;20170;-87
2023/06/30 10:20:29;;;;;;;2.55;1.85;;;;;;;;;;7391049;19;20141;-89
2023/06/30 10:23:13;;;;;;;1.90;1.80;;;;;;;;;;7391624;19;20137;-89
2023/06/30 10:25:40;;;;;;;1.92;1.83;;;;;;;;;;7390684;19;20152;-89
2023/06/30 10:28:07;;;;;;;4.18;3.78;;;;;;;;;;7392654;19;20137;-89
2023/06/30 10:30:34;;;;;;;5.30;2.63;;;;;;;;;;7393580;19;20498;-89
2023/06/30 10:33:01;;;;;;;1.88;1.75;;;;;;;;;;7394331;19;20201;-89
2023/06/30 10:35:28;;;;;;;4.57;3.70;;;;;;;;;;7398720;19;20173;-89
2023/06/30 10:37:56;;;;;;;3.53;3.22;;;;;;;;;;7399823;19;20518;-89
2023/06/30 10:40:29;;;;;;;2.92;2.63;;;;;;;;;;7396580;19;20204;-89
2023/06/30 10:42:58;;;;;;;3.25;2.03;;;;;;;;;;7397059;19;20141;-88
2023/06/30 10:45:29;;;;;;;2.70;2.50;;;;;;;;;;7396561;19;20152;-90
2023/06/30 10:47:56;;;;;;;3.15;2.85;;;;;;;;;;7399341;19;20133;-89
2023/06/30 10:50:23;;;;;;;5.57;2.25;;;;;;;;;;7395538;19;20161;-89
2023/06/30 10:52:54;;;;;;;2.60;2.30;;;;;;;;;;7396889;19;20209;-90
2023/06/30 10:55:26;;;;;;;2.53;2.33;;;;;;;;;;7395049;19;20157;-90
2023/06/30 10:57:54;;;;;;;1.63;1.52;;;;;;;;;;7396731;19;20140;-90
2023/06/30 11:00:24;;;;;;;5.00;3.00;;;;;;;;;;7396603;19;20636;-89
2023/06/30 11:02:57;;;;;;;2.42;2.25;;;;;;;;;;7398163;19;20125;-89
2023/06/30 11:05:29;;;;;;;3.70;3.00;;;;;;;;;;7396290;19;20681;-89
2023/06/30 11:08:06;;;;;;;3.45;2.58;;;;;;;;;;7396296;19;20133;-89
2023/06/30 11:10:37;;;;;;;2.35;2.15;;;;;;;;;;7395313;19;20141;-89
2023/06/30 11:13:11;;;;;;;1.70;1.60;;;;;;;;;;7397097;19;20141;-90
2023/06/30 11:15:44;;;;;;;3.60;2.63;;;;;;;;;;7395930;19;20228;-90
2023/06/30 11:18:20;;;;;;;2.05;1.95;;;;;;;;;;7395616;19;20133;-89
2023/06/30 11:21:00;;;;;;;2.08;1.88;;;;;;;;;;7402301;19;20149;-89
2023/06/30 11:23:31;;;;;;;2.72;2.53;;;;;;;;;;7399464;19;20573;-89
2023/06/30 11:25:58;;;;;;;2.65;2.47;;;;;;;;;;7392728;19;20520;-90
2023/06/30 11:28:25;;;;;;;4.53;2.03;;;;;;;;;;7395358;19;20137;-90
2023/06/30 11:30:52;;;;;;;1.95;1.85;;;;;;;;;;7396483;19;20484;-90
2023/06/30 11:33:18;;;;;;;2.67;2.47;;;;;;;;;;7396134;19;20140;-89
2023/06/30 11:35:50;;;;;;;6.25;2.67;;;;;;;;;;7394554;19;20155;-90
2023/06/30 11:38:17;;;;;;;2.38;2.25;;;;;;;;;;7395409;19;20140;-90
2023/06/30 11:40:45;;;;;;;1.17;1.10;;;;;;;;;;7395047;19;20485;-89
2023/06/30 11:43:12;;;;;;;3.45;3.13;;;;;;;;;;7407228;19;20114;-90
2023/06/30 11:45:39;;;;;;;5.00;2.88;;;;;;;;;;7424344;19;20144;-88
2023/06/30 11:48:06;;;;;;;6.80;3.72;;;;;;;;;;7427979;19;20133;-91
2023/06/30 11:50:33;;;;;;;2.95;2.67;;;;;;;;;;7426041;19;20122;-90
2023/06/30 11:53:03;;;;;;;3.75;2.35;;;;;;;;;;7427079;19;20133;-91
2023/06/30 11:55:29;;;;;;;3.05;2.78;;;;;;;;;;7426608;19;20141;-91
2023/06/30 11:57:56;;;;;;;3.67;2.30;;;;;;;;;;7427365;19;20161;-91
2023/06/30 12:00:23;;;;;;;2.08;1.98;;;;;;;;;;7427851;19;20133;-90
2023/06/30 12:02:50;;;;;;;2.83;2.63;;;;;;;;;;7424672;19;20133;-88
2023/06/30 12:05:27;;;;;;;3.45;2.45;;;;;;;;;;7425925;19;20160;-89
2023/06/30 12:07:57;;;;;;;2.15;2.03;;;;;;;;;;7397929;19;20638;-89
2023/06/30 12:10:36;;;;;;;2.80;2.28;;;;;;;;;;7394196;19;20133;-87
2023/06/30 12:13:08;;;;;;;3.72;2.95;;;;;;;;;;7395702;19;20158;-88
2023/06/30 12:15:38;;;;;;;1.63;1.55;;;;;;;;;;7394196;19;20153;-87
2023/06/30 12:18:05;;;;;;;3.20;2.22;;;;;;;;;;7394873;19;20246;-86
2023/06/30 12:20:36;;;;;;;3.60;3.03;;;;;;;;;;7395190;19;20140;-87
2023/06/30 12:23:04;;;;;;;2.60;2.45;;;;;;;;;;7394093;19;20144;-86
2023/06/30 12:25:33;;;;;;;2.13;1.95;;;;;;;;;;7392742;19;20168;-86
2023/06/30 12:28:07;;;;;;;2.53;2.33;;;;;;;;;;7393453;19;20216;-87
2023/06/30 12:30:34;;;;;;;2.85;2.60;;;;;;;;;;7392012;19;20137;-87
2023/06/30 12:33:01;;;;;;;2.92;2.72;;;;;;;;;;7392525;19;20279;-87
2023/06/30 12:35:29;;;;;;;2.78;2.58;;;;;;;;;;7392308;19;20160;-87
2023/06/30 12:37:56;;;;;;;4.03;3.47;;;;;;;;;;7391157;19;20148;-87
2023/06/30 12:40:24;;;;;;;3.30;2.78;;;;;;;;;;7393450;19;20145;-87
2023/06/30 12:42:53;;;;;;;4.53;2.35;;;;;;;;;;7390572;19;20214;-87
2023/06/30 12:45:20;;;;;;;1.98;1.88;;;;;;;;;;7392270;19;20609;-87
2023/06/30 12:47:47;;;;;;;2.08;1.95;;;;;;;;;;7393400;19;20140;-87
2023/06/30 12:50:14;;;;;;;2.85;2.13;;;;;;;;;;7392844;19;20192;-88
2023/06/30 12:52:41;;;;;;;2.63;1.95;;;;;;;;;;7393255;19;20148;-86
2023/06/30 12:55:09;;;;;;;1.35;1.25;;;;;;;;;;7392198;19;20149;-87
2023/06/30 12:57:36;;;;;;;1.73;1.63;;;;;;;;;;7394755;19;20137;-86
2023/06/30 13:00:06;;;;;;;1.77;1.52;;;;;;;;;;7393553;19;20496;-86
2023/06/30 13:02:33;;;;;;;1.63;1.52;;;;;;;;;;7392997;19;20129;-86
2023/06/30 13:05:00;;;;;;;1.63;1.52;;;;;;;;;;7391532;19;20578;-87
2023/06/30 13:07:27;;;;;;;2.60;2.40;;;;;;;;;;7392832;19;20137;-86
2023/06/30 13:09:56;;;;;;;1.90;1.73;;;;;;;;;;7392440;19;20141;-86
2023/06/30 13:12:26;;;;;;;2.45;2.25;;;;;;;;;;7392556;19;20139;-86
2023/06/30 13:14:53;;;;;;;1.30;1.23;;;;;;;;;;7391349;19;20172;-89
2023/06/30 13:17:20;;;;;;;2.22;2.05;;;;;;;;;;7392155;19;20133;-86
2023/06/30 13:19:47;;;;;;;1.27;1.25;;;;;;;;;;7392219;19;20137;-87
2023/06/30 13:22:14;;;;;;;2.17;1.98;;;;;;;;;;7391756;19;20143;-86
2023/06/30 13:24:43;;;;;;;2.30;2.10;;;;;;;;;;7390974;19;20149;-89
2023/06/30 13:27:11;;;;;;;2.28;2.08;;;;;;;;;;7392426;19;20151;-86
2023/06/30 13:29:48;;;;;;;3.22;1.95;;;;;;;;;;7390813;19;20172;-86
2023/06/30 13:32:16;;;;;;;2.38;2.25;;;;;;;;;;7391418;19;20143;-87
2023/06/30 13:34:44;;;;;;;5.70;3.20;;;;;;;;;;7390840;19;20208;-87
2023/06/30 13:37:10;;;;;;;2.78;2.58;;;;;;;;;;7392982;19;20129;-88
2023/06/30 13:39:37;;;;;;;3.20;2.90;;;;;;;;;;7393678;19;20143;-88
2023/06/30 13:42:05;;;;;;;1.40;1.30;;;;;;;;;;7392810;19;20192;-89
2023/06/30 13:44:32;;;;;;;3.75;2.83;;;;;;;;;;7391839;19;20595;-87
2023/06/30 13:46:59;;;;;;;2.28;2.08;;;;;;;;;;7393400;19;20133;-88
2023/06/30 13:49:25;;;;;;;2.70;2.42;;;;;;;;;;7391983;19;20515;-88
2023/06/30 13:51:52;;;;;;;2.90;2.00;;;;;;;;;;7392733;19;20141;-88
2023/06/30 13:54:20;;;;;;;3.00;2.80;;;;;;;;;;7391537;19;20135;-88
2023/06/30 13:56:47;;;;;;;7.88;2.58;;;;;;;;;;7391969;19;20133;-88
2023/06/30 13:59:14;;;;;;;2.72;2.53;;;;;;;;;;7394469;19;20619;-88
2023/06/30 14:01:43;;;;;;;2.80;2.58;;;;;;;;;;7392264;19;20141;-88
2023/06/30 14:04:10;;;;;;;5.28;2.08;;;;;;;;;;7390417;19;20482;-88
2023/06/30 14:06:37;;;;;;;3.92;1.60;;;;;;;;;;7391825;19;20137;-88
2023/06/30 14:09:03;;;;;;;2.63;1.55;;;;;;;;;;7396172;19;20140;-89
2023/06/30 14:11:30;;;;;;;1.98;1.88;;;;;;;;;;7396032;19;20137;-88
2023/06/30 14:13:57;;;;;;;3.53;3.22;;;;;;;;;;7398347;19;20606;-89
2023/06/30 14:16:23;;;;;;;3.67;3.35;;;;;;;;;;7397328;19;20152;-88
2023/06/30 14:18:50;;;;;;;3.75;3.15;;;;;;;;;;7398500;19;20137;-89
2023/06/30 14:21:17;;;;;;;1.85;1.75;;;;;;;;;;7398041;19;20129;-89
2023/06/30 14:23:45;;;;;;;2.25;2.15;;;;;;;;;;7398012;19;20141;-89
2023/06/30 14:26:11;;;;;;;1.33;1.23;;;;;;;;;;7396445;19;20169;-88
2023/06/30 14:28:38;;;;;;;4.03;2.38;;;;;;;;;;7398164;19;20139;-89
2023/06/30 14:31:05;;;;;;;2.60;2.28;;;;;;;;;;7395955;19;20613;-88
2023/06/30 14:33:31;;;;;;;3.88;3.33;;;;;;;;;;7397993;19;20133;-88
2023/06/30 14:35:58;;;;;;;2.22;2.03;;;;;;;;;;7396785;19;20285;-88
2023/06/30 14:38:25;;;;;;;2.05;1.55;;;;;;;;;;7397899;19;20158;-88
2023/06/30 14:40:52;;;;;;;3.38;2.20;;;;;;;;;;7398083;19;20141;-88
2023/06/30 14:43:18;;;;;;;2.22;2.03;;;;;;;;;;7398276;19;20145;-88
2023/06/30 14:45:45;;;;;;;4.00;2.15;;;;;;;;;;7394786;19;20667;-88
2023/06/30 14:48:12;;;;;;;4.95;2.63;;;;;;;;;;7398026;19;20161;-88
2023/06/30 14:50:39;;;;;;;2.45;2.25;;;;;;;;;;7395069;19;20205;-88
2023/06/30 14:53:06;;;;;;;2.60;2.40;;;;;;;;;;7397034;19;20550;-88
2023/06/30 14:55:32;;;;;;;2.40;2.25;;;;;;;;;;7394305;19;20156;-89
2023/06/30 14:57:59;;;;;;;2.85;2.17;;;;;;;;;;7395272;19;20633;-88
2023/06/30 15:00:25;;;;;;;2.00;1.85;;;;;;;;;;7397236;19;20181;-91
2023/06/30 15:02:52;;;;;;;3.08;2.78;;;;;;;;;;7396617;19;20143;-87
2023/06/30 15:05:19;;;;;;;3.30;2.42;;;;;;;;;;7396438;19;20228;-87
2023/06/30 15:07:46;;;;;;;1.33;1.33;;;;;;;;;;7398128;19;20140;-87
2023/06/30 15:10:13;;;;;;;1.55;1.48;;;;;;;;;;7396738;19;20140;-87
2023/06/30 15:12:40;;;;;;;1.80;1.65;;;;;;;;;;7399031;19;20151;-87
2023/06/30 15:15:07;;;;;;;2.13;2.03;;;;;;;;;;7395847;19;20159;-87
2023/06/30 15:17:33;;;;;;;2.95;2.75;;;;;;;;;;7397848;19;20605;-87
2023/06/30 15:20:00;;;;;;;1.65;1.48;;;;;;;;;;7398775;19;20133;-87
2023/06/30 15:22:29;;;;;;;2.22;1.83;;;;;;;;;;7396882;19;20134;-87
2023/06/30 15:24:57;;;;;;;1.48;1.38;;;;;;;;;;7398429;19;20141;-86
2023/06/30 15:27:25;;;;;;;1.60;1.50;;;;;;;;;;7396603;19;20148;-87
2023/06/30 15:29:52;;;;;;;1.63;1.52;;;;;;;;;;7395035;19;20136;-87
2023/06/30 15:32:19;;;;;;;1.15;0.88;;;;;;;;;;7395162;19;20137;-91
2023/06/30 15:34:46;;;;;;;2.05;1.63;;;;;;;;;;7398205;19;20594;-87
2023/06/30 15:37:13;;;;;;;2.47;2.28;;;;;;;;;;7404219;19;20125;-87
2023/06/30 15:39:41;;;;;;;1.33;1.33;;;;;;;;;;7400742;19;20143;-89
2023/06/30 15:42:07;;;;;;;2.30;1.83;;;;;;;;;;7396414;19;20139;-88
2023/06/30 15:44:34;;;;;;;1.85;1.75;;;;;;;;;;7395206;19;20155;-88
2023/06/30 15:47:01;;;;;;;2.05;1.95;;;;;;;;;;7395933;19;20195;-88
2023/06/30 15:49:28;;;;;;;3.55;2.50;;;;;;;;;;7396692;19;20144;-87
2023/06/30 15:51:54;;;;;;;3.05;2.50;;;;;;;;;;7392336;19;20125;-89
2023/06/30 15:54:21;;;;;;;1.30;1.27;;;;;;;;;;7392566;19;20196;-89
2023/06/30 15:56:47;;;;;;;0.95;0.95;;;;;;;;;;7393520;19;20133;-88
2023/06/30 15:59:14;;;;;;;2.17;1.98;;;;;;;;;;7393550;19;20140;-88
2023/06/30 16:01:41;;;;;;;2.70;2.13;;;;;;;;;;7393401;19;20149;-89
2023/06/30 16:04:07;;;;;;;1.83;1.73;;;;;;;;;;7393336;19;20601;-88
2023/06/30 16:06:34;;;;;;;3.22;1.55;;;;;;;;;;7393433;19;20147;-88
2023/06/30 16:09:01;;;;;;;2.00;1.90;;;;;;;;;;7394202;19;20148;-89
2023/06/30 16:11:27;;;;;;;1.08;0.98;;;;;;;;;;7391708;19;20125;-89
2023/06/30 16:13:54;;;;;;;4.93;1.70;;;;;;;;;;7392156;19;20499;-89
2023/06/30 16:16:20;;;;;;;0.95;0.95;;;;;;;;;;7391337;19;20168;-89
2023/06/30 16:18:47;;;;;;;2.00;1.73;;;;;;;;;;7393342;19;20133;-89
2023/06/30 16:21:15;;;;;;;1.73;1.63;;;;;;;;;;7393116;19;20133;-89
2023/06/30 16:23:42;;;;;;;1.73;1.63;;;;;;;;;;7390238;19;20132;-89
2023/06/30 16:26:09;;;;;;;1.65;1.55;;;;;;;;;;7391005;19;20512;-89
2023/06/30 16:28:36;;;;;;;1.35;1.25;;;;;;;;;;7392365;19;20144;-89
2023/06/30 16:31:02;;;;;;;2.30;2.10;;;;;;;;;;7391706;19;20137;-89
2023/06/30 16:33:29;;;;;;;1.90;1.73;;;;;;;;;;7391560;19;20129;-89
2023/06/30 16:35:57;;;;;;;1.63;1.52;;;;;;;;;;7396095;19;20148;-88
2023/06/30 16:38:23;;;;;;;2.40;2.22;;;;;;;;;;7391635;19;20139;-89
2023/06/30 16:40:50;;;;;;;2.08;1.55;;;;;;;;;;7390949;19;20481;-89
2023/06/30 16:43:17;;;;;;;1.50;1.40;;;;;;;;;;7392030;19;20125;-88
2023/06/30 16:45:43;;;;;;;1.02;1.02;;;;;;;;;;7391033;19;20152;-89
2023/06/30 16:48:10;;;;;;;2.15;1.45;;;;;;;;;;7390962;19;20500;-88
2023/06/30 16:50:37;;;;;;;3.08;2.80;;;;;;;;;;7392493;19;20137;-88
2023/06/30 16:53:04;;;;;;;2.88;1.50;;;;;;;;;;7391197;19;20997;-88
2023/06/30 16:55:30;;;;;;;2.22;1.70;;;;;;;;;;7390650;19;20196;-87
2023/06/30 16:57:57;;;;;;;2.47;1.88;;;;;;;;;;7391208;19;20140;-89
2023/06/30 17:00:24;;;;;;;1.80;1.70;;;;;;;;;;7392449;19;20491;-89
2023/06/30 17:02:51;;;;;;;2.45;2.25;;;;;;;;;;7391865;19;20558;-87
2023/06/30 17:05:18;;;;;;;1.77;1.67;;;;;;;;;;7391314;19;20148;-87
2023/06/30 17:07:44;;;;;;;2.08;1.95;;;;;;;;;;7391387;19;20212;-88
2023/06/30 17:10:11;;;;;;;2.25;1.92;;;;;;;;;;7391692;19;20144;-88
2023/06/30 17:12:38;;;;;;;1.92;1.70;;;;;;;;;;7390431;19;20204;-88
2023/06/30 17:15:09;;;;;;;1.52;1.42;;;;;;;;;;7389910;19;20145;-88
2023/06/30 17:17:36;;;;;;;4.13;2.70;;;;;;;;;;7389088;19;20519;-88
2023/06/30 17:20:03;;;;;;;2.10;1.35;;;;;;;;;;7390599;19;20157;-88
2023/06/30 17:22:30;;;;;;;1.50;1.35;;;;;;;;;;7390947;19;20133;-87
2023/06/30 17:24:58;;;;;;;1.20;1.20;;;;;;;;;;7389880;19;20628;-88
2023/06/30 17:27:31;;;;;;;1.52;1.45;;;;;;;;;;7391591;19;20692;-88
2023/06/30 17:29:57;;;;;;;1.50;1.40;;;;;;;;;;7390331;19;20150;-87
2023/06/30 17:32:26;;;;;;;1.42;1.33;;;;;;;;;;7388606;19;20136;-87
2023/06/30 17:34:53;;;;;;;1.05;1.05;;;;;;;;;;7389559;19;20172;-87
2023/06/30 17:37:19;;;;;;;1.17;1.08;;;;;;;;;;7390425;19;20137;-87
2023/06/30 17:39:46;;;;;;;1.20;1.13;;;;;;;;;;7390176;19;20136;-89
2023/06/30 17:42:13;;;;;;;1.38;1.27;;;;;;;;;;7390012;19;20133;-87
2023/06/30 17:44:41;;;;;;;3.03;1.45;;;;;;;;;;7394027;19;20496;-87
2023/06/30 17:47:08;;;;;;;1.42;1.25;;;;;;;;;;7397582;19;20220;-87
2023/06/30 17:49:34;;;;;;;1.60;0.82;;;;;;;;;;7396575;19;20496;-87
2023/06/30 17:52:02;;;;;;;0.93;0.93;;;;;;;;;;7396031;19;20139;-87
2023/06/30 17:54:29;;;;;;;0.75;0.75;;;;;;;;;;7396932;19;20518;-87
2023/06/30 17:56:56;;;;;;;1.63;1.52;;;;;;;;;;7397671;19;20147;-87
2023/06/30 17:59:25;;;;;;;1.13;1.13;;;;;;;;;;7396981;19;20132;-87
2023/06/30 18:01:52;;;;;;;1.13;1.13;;;;;;;;;;7397464;19;20167;-89
2023/06/30 18:04:19;;;;;;;0.98;0.98;;;;;;;;;;7397112;19;20720;-89
2023/06/30 18:07:05;;;;;;;0.65;0.65;;;;;;;;;;7397553;19;20137;-89
2023/06/30 18:09:34;;;;;;;1.42;1.33;;;;;;;;;;7396211;19;20504;-90
2023/06/30 18:12:01;;;;;;;0.90;0.90;;;;;;;;;;7395105;19;20197;-90
2023/06/30 18:14:29;;;;;;;1.77;1.67;;;;;;;;;;7395430;19;20172;-88
2023/06/30 18:16:56;;;;;;;1.30;1.27;;;;;;;;;;7398474;19;20488;-87
2023/06/30 18:19:23;;;;;;;0.77;0.77;;;;;;;;;;7398824;19;20136;-87
2023/06/30 18:21:50;;;;;;;1.20;0.82;;;;;;;;;;7398444;19;20141;-89
2023/06/30 18:24:17;;;;;;;1.00;1.00;;;;;;;;;;7397658;19;20137;-88
2023/06/30 18:26:47;;;;;;;1.20;1.13;;;;;;;;;;7398358;19;20220;-87
2023/06/30 18:29:15;;;;;;;1.65;1.17;;;;;;;;;;7398685;19;20161;-87
2023/06/30 18:32:07;;;;;;;1.55;1.45;;;;;;;;;;7388407;19;20494;-90
2023/06/30 18:45:37;;;;;;;3.05;1.17;;;;;;;;;;7400032;19;20141;-89
2023/06/30 18:48:09;;;;;;;0.70;0.70;;;;;;;;;;7403783;19;20133;-89
2023/06/30 18:50:39;;;;;;;1.00;1.00;;;;;;;;;;7395637;19;20144;-91
2023/06/30 18:53:06;;;;;;;0.88;0.88;;;;;;;;;;7394603;19;20137;-89
2023/06/30 18:55:32;;;;;;;0.77;0.77;;;;;;;;;;7389110;19;20152;-91
2023/06/30 18:57:59;;;;;;;1.60;0.98;;;;;;;;;;7400290;19;20145;-90
2023/06/30 19:00:25;;;;;;;1.17;1.02;;;;;;;;;;7397181;19;20150;-88
2023/06/30 19:02:52;;;;;;;0.65;0.65;;;;;;;;;;7395357;19;20636;-90
2023/06/30 19:05:19;;;;;;;0.90;0.90;;;;;;;;;;7392719;19;20172;-89
2023/06/30 19:07:45;;;;;;;0.55;0.55;;;;;;;;;;7394618;19;20485;-89
2023/06/30 19:10:12;;;;;;;0.73;0.73;;;;;;;;;;7387822;19;20137;-88
2023/06/30 19:12:39;;;;;;;3.78;1.23;;;;;;;;;;7388237;19;20133;-89
2023/06/30 19:15:06;;;;;;;2.05;1.25;;;;;;;;;;7390722;19;20274;-89
2023/06/30 19:17:33;;;;;;;1.02;1.02;;;;;;;;;;7385439;19;20137;-87
2023/06/30 19:20:00;;;;;;;2.38;1.55;;;;;;;;;;7394425;19;20145;-88
2023/06/30 19:22:28;;;;;;;1.10;1.00;;;;;;;;;;7390003;19;20137;-88
2023/06/30 19:24:55;;;;;;;0.63;0.63;;;;;;;;;;7391133;19;20216;-90
2023/06/30 19:27:21;;;;;;;1.23;1.13;;;;;;;;;;7397499;19;20145;-89
2023/06/30 19:29:49;;;;;;;0.65;0.65;;;;;;;;;;7396677;19;20137;-89
2023/06/30 19:32:42;;;;;;;0.60;0.60;;;;;;;;;;7393034;19;20145;-90
2023/06/30 19:40:11;;;;;;;1.17;1.08;;;;;;;;;;7386970;19;20137;-91
2023/06/30 19:42:48;;;;;;;0.63;0.63;;;;;;;;;;7393409;19;20747;-89
2023/06/30 20:21:39;;;;;;;0.55;0.55;;;;;;;;;;7397297;19;20796;-89
2023/06/30 20:24:14;;;;;;;0.68;0.68;;;;;;;;;;7390833;19;20148;-90
2023/06/30 20:27:31;;;;;;;0.30;0.30;;;;;;;;;;7392259;19;20140;-90
2023/06/30 20:33:26;;;;;;;0.55;0.55;;;;;;;;;;7393619;19;20126;-90
2023/06/30 20:35:54;;;;;;;1.23;1.23;;;;;;;;;;7371932;19;20202;-90
2023/06/30 20:38:21;;;;;;;0.47;0.47;;;;;;;;;;7394133;19;20133;-90
2023/06/30 20:47:52;;;;;;;0.50;0.50;;;;;;;;;;7394133;19;20128;-90
2023/06/30 21:04:57;;;;;;;2.95;1.42;;;;;;;;;;7395341;19;20180;-89
2023/06/30 21:07:25;;;;;;;3.10;1.10;;;;;;;;;;7394315;19;20153;-89
2023/06/30 21:09:51;;;;;;;0.82;0.82;;;;;;;;;;7390342;19;20145;-89
2023/06/30 22:15:59;;;;;;;1.10;1.00;;;;;;;;;;7392905;19;20188;-88
2023/06/30 22:18:50;;;;;;;0.70;0.70;;;;;;;;;;7398024;19;20158;-90
2023/06/30 22:21:20;;;;;;;0.77;0.77;;;;;;;;;;7393234;19;20159;-89
2023/06/30 22:23:50;;;;;;;0.50;0.50;;;;;;;;;;7392264;19;20233;-90
2023/06/30 22:26:27;;;;;;;0.35;0.35;;;;;;;;;;7392902;19;20160;-90
2023/06/30 22:28:57;;;;;;;1.20;1.10;;;;;;;;;;7396001;19;20137;-89
2023/06/30 22:48:54;;;;;;;0.45;0.45;;;;;;;;;;7400411;19;20652;-89
2023/06/30 22:51:28;;;;;;;0.40;0.40;;;;;;;;;;7399980;19;20809;-91
2023/06/30 22:54:18;;;;;;;0.65;0.65;;;;;;;;;;7399726;19;20137;-91
2023/06/30 22:56:45;;;;;;;1.05;0.95;;;;;;;;;;7395032;19;20188;-90
2023/06/30 22:59:12;;;;;;;0.40;0.40;;;;;;;;;;7399129;19;20212;-92
2023/06/30 23:01:39;;;;;;;0.93;0.82;;;;;;;;;;7400192;19;20136;-90
2023/06/30 23:04:06;;;;;;;0.68;0.63;;;;;;;;;;7399802;19;20478;-92
2023/06/30 23:06:39;;;;;;;0.55;0.55;;;;;;;;;;7395782;19;20145;-92
2023/06/30 23:12:06;;;;;;;0.95;0.95;;;;;;;;;;7395473;19;20149;-92
2023/06/30 23:14:33;;;;;;;1.98;0.75;;;;;;;;;;7393530;19;20177;-92
2023/06/30 23:17:06;;;;;;;0.75;0.75;;;;;;;;;;7394434;19;20154;-91
2023/06/30 23:19:35;;;;;;;0.68;0.68;;;;;;;;;;7393136;19;20145;-92
2023/06/30 23:22:07;;;;;;;0.50;0.50;;;;;;;;;;7394176;19;20204;-91
2023/06/30 23:24:35;;;;;;;0.50;0.50;;;;;;;;;;7393810;19;20177;-92
2023/06/30 23:27:03;;;;;;;1.20;1.08;;;;;;;;;;7397107;19;20129;-92
2023/06/30 23:29:35;;;;;;;2.70;1.73;;;;;;;;;;7396396;19;20175;-91
2023/06/30 23:32:06;;;;;;;0.80;0.80;;;;;;;;;;7398688;19;20233;-92
2023/06/30 23:34:38;;;;;;;0.47;0.47;;;;;;;;;;7395618;19;20641;-91
2023/06/30 23:37:08;;;;;;;0.63;0.63;;;;;;;;;;7395207;19;20140;-92
2023/06/30 23:39:35;;;;;;;1.23;0.90;;;;;;;;;;7395215;19;20135;-92
2023/06/30 23:42:02;;;;;;;0.93;0.68;;;;;;;;;;7392395;19;20165;-91
2023/06/30 23:44:29;;;;;;;0.60;0.60;;;;;;;;;;7393446;19;20216;-91